createdAt,value
2023-01-17T00:01:47.176Z,41.23
2023-01-17T00:05:07.657Z,50.55
2023-01-17T00:08:30.472Z,48.83
2023-01-17T00:11:32.420Z,46.53
2023-01-17T00:14:34.428Z,36.90
2023-01-17T00:17:36.448Z,43.38
2023-01-17T00:20:56.804Z,43.45
2023-01-17T00:24:17.306Z,41.83
2023-01-17T00:27:19.276Z,43.25
2023-01-17T00:30:21.320Z,40.63
2023-01-17T00:33:23.854Z,39.80
2023-01-17T00:36:25.754Z,35.95
2023-01-17T00:39:27.684Z,40.65
2023-01-17T00:42:29.647Z,41.00
2023-01-17T00:45:50.423Z,39.00
2023-01-17T00:49:11.537Z,34.45
2023-01-17T00:52:32.244Z,43.33
2023-01-17T00:55:52.517Z,30.37
2023-01-17T00:59:12.952Z,40.85
2023-01-17T01:02:33.556Z,32.85
2023-01-17T01:05:55.433Z,33.60
2023-01-17T01:09:15.901Z,28.67
2023-01-17T01:12:36.503Z,31.60
2023-01-17T01:15:56.969Z,30.67
2023-01-17T01:19:18.239Z,29.88
2023-01-17T01:22:38.660Z,34.38
2023-01-17T01:25:59.393Z,32.63
2023-01-17T01:29:19.721Z,38.10
2023-01-17T01:32:40.405Z,27.05
2023-01-17T01:35:43.179Z,31.13
2023-01-17T01:38:46.023Z,24.97
2023-01-17T01:41:48.046Z,29.80
2023-01-17T01:44:54.177Z,32.70
2023-01-17T01:48:03.935Z,23.77
2023-01-17T01:51:07.782Z,23.58
2023-01-17T01:54:17.986Z,26.55
2023-01-17T01:57:22.737Z,34.33
2023-01-17T02:00:27.153Z,24.47
2023-01-17T02:03:30.819Z,30.70
2023-01-17T02:06:35.334Z,31.27
2023-01-17T02:09:37.408Z,35.10
2023-01-17T02:12:39.611Z,28.25
2023-01-17T02:15:47.491Z,27.27
2023-01-17T02:18:55.273Z,36.97
2023-01-17T02:22:17.512Z,24.80
2023-01-17T02:25:28.365Z,41.47
2023-01-17T02:29:01.597Z,33.58
2023-01-17T02:32:11.086Z,23.53
2023-01-17T02:35:13.109Z,36.65
2023-01-17T02:38:47.492Z,40.25
2023-01-17T02:41:53.345Z,40.67
2023-01-17T02:44:55.388Z,35.60
2023-01-17T02:47:57.709Z,47.60
2023-01-17T02:50:59.685Z,51.30
2023-01-17T02:54:10.804Z,41.38
2023-01-17T02:57:48.152Z,42.58
2023-01-17T03:00:58.011Z,40.42
2023-01-17T03:04:04.867Z,48.70
2023-01-17T03:07:11.120Z,37.67
2023-01-17T03:10:14.758Z,31.25
2023-01-17T03:13:16.750Z,41.33
2023-01-17T03:16:19.849Z,45.08
2023-01-17T03:19:21.879Z,42.13
2023-01-17T03:22:23.892Z,41.00
2023-01-17T03:25:25.997Z,46.03
2023-01-17T03:28:29.432Z,44.47
2023-01-17T03:31:31.388Z,43.45
2023-01-17T03:34:33.458Z,40.37
2023-01-17T03:37:35.499Z,46.92
2023-01-17T03:40:37.491Z,39.53
2023-01-17T03:43:39.422Z,42.83
2023-01-17T03:46:41.493Z,42.53
2023-01-17T03:49:43.487Z,51.67
2023-01-17T03:52:45.521Z,42.83
2023-01-17T03:55:47.888Z,33.33
2023-01-17T03:58:49.982Z,37.50
2023-01-17T04:01:52.109Z,41.33
2023-01-17T04:04:54.216Z,29.33
2023-01-17T04:07:56.273Z,38.28
2023-01-17T04:10:58.303Z,32.58
2023-01-17T04:14:00.340Z,25.50
2023-01-17T04:17:04.158Z,28.75
2023-01-17T04:20:06.595Z,32.20
2023-01-17T04:23:08.625Z,35.60
2023-01-17T04:26:11.933Z,27.35
2023-01-17T04:29:13.959Z,32.60
2023-01-17T04:32:16.102Z,30.10
2023-01-17T04:35:18.073Z,21.37
2023-01-17T04:38:20.060Z,24.00
2023-01-17T04:41:22.059Z,25.92
2023-01-17T04:44:24.082Z,29.87
2023-01-17T04:47:26.061Z,20.42
2023-01-17T04:50:28.384Z,14.38
2023-01-17T04:53:30.441Z,23.80
2023-01-17T04:56:32.487Z,19.58
2023-01-17T04:59:34.516Z,16.05
2023-01-17T05:02:36.604Z,15.50
2023-01-17T05:05:38.649Z,10.27
2023-01-17T05:08:40.645Z,11.65
2023-01-17T05:11:42.663Z,13.40
2023-01-17T05:14:44.586Z,16.07
2023-01-17T05:17:46.604Z,12.90
2023-01-17T05:20:48.633Z,17.20
2023-01-17T05:23:50.965Z,19.80
2023-01-17T05:26:54.904Z,22.20
2023-01-17T05:29:56.975Z,23.00
2023-01-17T05:32:59.132Z,21.98
2023-01-17T05:36:01.138Z,22.70
2023-01-17T05:39:03.255Z,18.48
2023-01-17T05:42:05.352Z,22.45
2023-01-17T05:45:07.977Z,18.63
2023-01-17T05:48:10.034Z,22.50
2023-01-17T05:51:12.127Z,17.48
2023-01-17T05:54:14.172Z,25.15
2023-01-17T05:57:17.554Z,27.75
2023-01-17T06:00:20.121Z,21.77
2023-01-17T06:03:22.132Z,24.88
2023-01-17T06:06:24.250Z,21.00
2023-01-17T06:09:26.268Z,31.70
2023-01-17T06:12:28.501Z,35.85
2023-01-17T06:15:30.714Z,16.10
2023-01-17T06:18:32.770Z,28.02
2023-01-17T06:21:35.071Z,33.47
2023-01-17T06:24:37.310Z,28.10
2023-01-17T06:27:39.379Z,27.10
2023-01-17T06:30:41.919Z,28.77
2023-01-17T06:33:44.099Z,33.70
2023-01-17T06:36:47.111Z,31.97
2023-01-17T06:39:49.479Z,21.02
2023-01-17T06:42:51.826Z,23.60
2023-01-17T06:45:54.863Z,21.50
2023-01-17T06:48:56.920Z,25.38
2023-01-17T06:51:59.257Z,29.25
2023-01-17T06:55:01.655Z,31.13
2023-01-17T06:58:04.049Z,30.95
2023-01-17T07:01:10.236Z,27.40
2023-01-17T07:04:12.480Z,25.70
2023-01-17T07:07:14.609Z,35.23
2023-01-17T07:10:17.332Z,20.38
2023-01-17T07:13:19.421Z,21.05
2023-01-17T07:16:21.552Z,20.53
2023-01-17T07:19:24.212Z,11.45
2023-01-17T07:22:26.772Z,19.27
2023-01-17T07:25:28.886Z,13.57
2023-01-17T07:28:31.046Z,12.75
2023-01-17T07:31:35.598Z,14.68
2023-01-17T07:34:37.720Z,13.18
2023-01-17T07:37:39.846Z,11.97
2023-01-17T07:40:42.580Z,8.60
2023-01-17T07:43:44.875Z,7.93
2023-01-17T07:46:47.179Z,8.87
2023-01-17T07:49:51.529Z,8.68
2023-01-17T07:52:54.727Z,6.32
2023-01-17T07:56:00.568Z,7.03
2023-01-17T07:59:03.077Z,6.07
2023-01-17T08:02:05.377Z,7.03
2023-01-17T08:05:07.631Z,5.25
2023-01-17T08:08:10.173Z,7.00
2023-01-17T08:11:12.345Z,5.85
2023-01-17T08:14:14.484Z,4.18
2023-01-17T08:17:17.364Z,3.93
2023-01-17T08:20:20.113Z,4.82
2023-01-17T08:23:22.421Z,2.17
2023-01-17T08:26:24.539Z,3.92
2023-01-17T08:29:26.787Z,2.80
2023-01-17T08:32:28.934Z,3.40
2023-01-17T08:35:31.604Z,4.28
2023-01-17T08:38:33.778Z,3.67
2023-01-17T08:41:36.451Z,2.67
2023-01-17T08:44:40.677Z,6.22
2023-01-17T08:47:43.095Z,3.43
2023-01-17T08:50:46.417Z,3.88
2023-01-17T08:53:48.710Z,2.58
2023-01-17T08:56:53.010Z,3.50
2023-01-17T08:59:55.211Z,2.70
2023-01-17T09:02:57.274Z,3.67
2023-01-17T09:06:10.082Z,2.95
2023-01-17T09:09:12.484Z,3.20
2023-01-17T09:12:14.659Z,3.92
2023-01-17T09:15:20.279Z,3.08
2023-01-17T09:18:22.376Z,4.47
2023-01-17T09:21:25.443Z,4.25
2023-01-17T09:24:27.633Z,2.55
2023-01-17T09:27:29.764Z,3.45
2023-01-17T09:30:31.944Z,3.58
2023-01-17T09:33:34.215Z,4.45
2023-01-17T09:36:36.428Z,3.35
2023-01-17T09:39:38.532Z,8.27
2023-01-17T09:42:41.355Z,3.30
2023-01-17T09:45:43.620Z,3.13
2023-01-17T09:48:46.151Z,3.73
2023-01-17T09:51:48.386Z,2.33
2023-01-17T09:54:51.240Z,2.90
2023-01-17T09:58:03.557Z,3.38
2023-01-17T10:01:05.931Z,4.10
2023-01-17T10:04:23.282Z,3.88
2023-01-17T10:07:28.279Z,3.92
2023-01-17T10:10:30.320Z,3.60
2023-01-17T10:13:35.481Z,2.60
2023-01-17T10:16:40.771Z,5.07
2023-01-17T10:20:02.088Z,3.67
2023-01-17T10:23:14.672Z,3.03
2023-01-17T10:26:19.176Z,4.63
2023-01-17T10:29:22.923Z,5.22
2023-01-17T10:32:26.908Z,2.63
2023-01-17T10:35:31.708Z,2.00
2023-01-17T10:38:36.084Z,2.90
2023-01-17T10:41:41.115Z,3.00
2023-01-17T10:45:01.996Z,3.60
2023-01-17T10:48:17.063Z,3.50
2023-01-17T10:51:46.100Z,3.23
2023-01-17T10:55:07.759Z,4.15
2023-01-17T10:58:13.509Z,3.60
2023-01-17T11:01:20.252Z,3.33
2023-01-17T11:04:25.855Z,3.73
2023-01-17T11:07:29.070Z,3.88
2023-01-17T11:10:51.100Z,6.18
2023-01-17T11:13:55.684Z,3.13
2023-01-17T11:17:04.834Z,4.63
2023-01-17T11:20:08.188Z,3.58
2023-01-17T11:23:13.137Z,2.33
2023-01-17T11:26:41.457Z,2.60
2023-01-17T11:29:43.500Z,2.90
2023-01-17T11:33:18.191Z,4.47
2023-01-17T11:36:22.950Z,4.53
2023-01-17T11:39:27.646Z,3.67
2023-01-17T11:42:52.513Z,5.15
2023-01-17T11:46:02.403Z,3.20
2023-01-17T11:49:04.507Z,2.90
2023-01-17T11:52:18.777Z,2.25
2023-01-17T11:55:23.176Z,3.80
2023-01-17T11:58:26.598Z,3.85
2023-01-17T12:01:42.462Z,4.13
2023-01-17T12:04:53.720Z,5.03
2023-01-17T12:08:01.617Z,5.18
2023-01-17T12:11:06.681Z,4.32
2023-01-17T12:14:25.436Z,2.35
2023-01-17T12:17:35.193Z,2.85
2023-01-17T12:20:44.086Z,4.37
2023-01-17T12:23:49.313Z,2.47
2023-01-17T12:27:06.731Z,3.55
2023-01-17T12:30:27.568Z,3.63
2023-01-17T12:33:45.879Z,3.78
2023-01-17T12:36:57.244Z,3.80
2023-01-17T12:40:05.405Z,3.90
2023-01-17T12:43:16.391Z,3.38
2023-01-17T12:46:24.226Z,9.07
2023-01-17T12:49:45.826Z,9.18
2023-01-17T12:52:52.979Z,4.27
2023-01-17T12:56:03.933Z,6.63
2023-01-17T12:59:06.137Z,5.93
2023-01-17T13:02:26.833Z,6.55
2023-01-17T13:05:41.026Z,10.40
2023-01-17T13:08:46.608Z,4.63
2023-01-17T13:11:55.451Z,9.50
2023-01-17T13:14:58.368Z,8.77
2023-01-17T13:18:09.823Z,7.70
2023-01-17T13:21:27.233Z,9.25
2023-01-17T13:24:31.854Z,18.50
2023-01-17T13:28:02.325Z,11.20
2023-01-17T13:31:19.704Z,8.00
2023-01-17T13:34:24.836Z,6.13
2023-01-17T13:37:39.484Z,5.20
2023-01-17T13:40:41.555Z,7.70
2023-01-17T13:44:07.716Z,12.38
2023-01-17T13:47:11.489Z,18.83
2023-01-17T13:50:32.332Z,18.15
2023-01-17T13:53:34.401Z,14.40
2023-01-17T13:56:36.601Z,15.70
2023-01-17T13:59:38.702Z,10.93
2023-01-17T14:02:42.275Z,13.13
2023-01-17T14:05:47.492Z,7.43
2023-01-17T14:08:49.564Z,10.30
2023-01-17T14:12:24.937Z,15.95
2023-01-17T14:15:27.854Z,15.13
2023-01-17T14:18:37.665Z,14.00
2023-01-17T14:21:39.919Z,13.20
2023-01-17T14:25:00.491Z,14.33
2023-01-17T14:28:04.402Z,14.23
2023-01-17T14:31:09.474Z,15.98
2023-01-17T14:34:12.477Z,10.47
2023-01-17T14:37:17.539Z,12.40
2023-01-17T14:40:20.976Z,8.55
2023-01-17T14:43:24.774Z,18.85
2023-01-17T14:46:26.772Z,23.90
2023-01-17T14:49:29.128Z,12.45
2023-01-17T14:52:31.222Z,20.95
2023-01-17T14:55:33.215Z,22.17
2023-01-17T14:58:42.384Z,18.20
2023-01-17T15:01:52.523Z,34.40
2023-01-17T15:05:04.114Z,29.07
2023-01-17T15:08:10.649Z,16.15
2023-01-17T15:11:21.630Z,11.23
2023-01-17T15:14:27.309Z,11.57
2023-01-17T15:17:29.380Z,14.07
2023-01-17T15:20:31.578Z,18.17
2023-01-17T15:23:37.067Z,14.68
2023-01-17T15:26:40.837Z,24.70
2023-01-17T15:29:44.062Z,39.00
2023-01-17T15:32:51.354Z,28.27
2023-01-17T15:36:04.402Z,20.40
2023-01-17T15:39:15.043Z,14.25
2023-01-17T15:42:24.371Z,22.38
2023-01-17T15:45:30.310Z,26.48
2023-01-17T15:48:40.624Z,21.77
2023-01-17T15:51:47.207Z,32.17
2023-01-17T15:54:52.860Z,15.07
2023-01-17T15:57:54.905Z,17.60
2023-01-17T16:00:57.131Z,27.33
2023-01-17T16:03:59.274Z,30.13
2023-01-17T16:07:17.615Z,24.67
2023-01-17T16:10:21.057Z,26.00
2023-01-17T16:13:23.100Z,21.92
2023-01-17T16:16:26.580Z,18.88
2023-01-17T16:19:28.803Z,20.20
2023-01-17T16:22:30.838Z,19.13
2023-01-17T16:25:33.090Z,16.25
2023-01-17T16:28:35.085Z,15.20
2023-01-17T16:31:37.165Z,15.65
2023-01-17T16:34:39.179Z,12.55
2023-01-17T16:37:41.961Z,13.53
2023-01-17T16:40:44.811Z,12.55
2023-01-17T16:43:56.107Z,12.73
2023-01-17T16:47:01.444Z,21.98
2023-01-17T16:50:03.757Z,15.18
2023-01-17T16:53:05.801Z,13.13
2023-01-17T16:56:10.161Z,22.65
2023-01-17T16:59:12.188Z,21.73
2023-01-17T17:02:15.300Z,28.55
2023-01-17T17:05:17.896Z,17.95
2023-01-17T17:08:19.969Z,16.20
2023-01-17T17:11:23.243Z,12.48
2023-01-17T17:14:25.295Z,11.95
2023-01-17T17:17:27.297Z,9.55
2023-01-17T17:20:29.372Z,7.88
2023-01-17T17:23:31.476Z,12.82
2023-01-17T17:26:35.056Z,14.23
2023-01-17T17:29:37.109Z,12.23
2023-01-17T17:32:39.142Z,14.18
2023-01-17T17:35:41.188Z,12.57
2023-01-17T17:38:52.118Z,15.87
2023-01-17T17:41:54.083Z,17.17
2023-01-17T17:44:56.125Z,18.88
2023-01-17T17:47:58.112Z,22.83
2023-01-17T17:51:00.610Z,22.75
2023-01-17T17:54:04.210Z,19.52
2023-01-17T17:57:06.674Z,24.73
2023-01-17T18:00:08.933Z,24.17
2023-01-17T18:03:10.959Z,20.10
2023-01-17T18:06:13.326Z,20.35
2023-01-17T18:09:15.485Z,21.37
2023-01-17T18:12:17.511Z,19.33
2023-01-17T18:15:20.855Z,20.25
2023-01-17T18:18:22.879Z,20.40
2023-01-17T18:21:26.296Z,16.83
2023-01-17T18:24:28.508Z,18.52
2023-01-17T18:27:30.511Z,20.02
2023-01-17T18:30:38.510Z,16.73
2023-01-17T18:33:40.603Z,19.40
2023-01-17T18:36:43.286Z,17.23
2023-01-17T18:39:45.311Z,23.00
2023-01-17T18:42:48.694Z,19.50
2023-01-17T18:45:53.639Z,20.27
2023-01-17T18:48:56.073Z,20.95
2023-01-17T18:51:58.238Z,18.23
2023-01-17T18:55:00.287Z,16.27
2023-01-17T18:58:02.233Z,20.35
2023-01-17T19:01:07.709Z,17.03
2023-01-17T19:04:09.848Z,24.50
2023-01-17T19:07:12.742Z,18.83
2023-01-17T19:10:14.957Z,22.87
2023-01-17T19:13:16.933Z,19.00
2023-01-17T19:16:28.152Z,14.35
2023-01-17T19:19:30.244Z,19.38
2023-01-17T19:22:32.283Z,14.60
2023-01-17T19:25:34.987Z,12.63
2023-01-17T19:28:37.856Z,14.55
2023-01-17T19:31:42.887Z,13.40
2023-01-17T19:34:45.250Z,18.27
2023-01-17T19:37:48.039Z,15.88
2023-01-17T19:40:50.065Z,11.27
2023-01-17T19:43:55.853Z,12.57
2023-01-17T19:46:57.939Z,12.30
2023-01-17T19:49:59.987Z,12.85
2023-01-17T19:53:01.993Z,7.00
2023-01-17T19:56:04.863Z,13.02
2023-01-17T19:59:07.261Z,11.48
2023-01-17T20:02:09.618Z,12.10
2023-01-17T20:05:11.814Z,11.02
2023-01-17T20:08:14.288Z,10.85
2023-01-17T20:11:20.352Z,10.30
2023-01-17T20:14:22.717Z,7.63
2023-01-17T20:17:24.675Z,8.85
2023-01-17T20:20:26.677Z,8.45
2023-01-17T20:23:28.698Z,10.02
2023-01-17T20:26:34.996Z,7.93
2023-01-17T20:29:40.638Z,7.97
2023-01-17T20:32:42.645Z,8.40
2023-01-17T20:35:44.746Z,10.15
2023-01-17T20:38:46.869Z,7.40
2023-01-17T20:41:51.506Z,6.50
2023-01-17T20:44:53.540Z,8.77
2023-01-17T20:47:55.948Z,9.52
2023-01-17T20:51:10.700Z,9.02
2023-01-17T20:54:14.400Z,8.15
2023-01-17T20:57:16.389Z,8.50
2023-01-17T21:00:18.482Z,9.93
2023-01-17T21:03:20.579Z,10.20
2023-01-17T21:06:23.578Z,11.20
2023-01-17T21:09:25.598Z,16.25
2023-01-17T21:12:27.600Z,15.73
2023-01-17T21:15:29.570Z,16.15
2023-01-17T21:18:32.112Z,18.05
2023-01-17T21:21:34.193Z,18.05
2023-01-17T21:24:36.189Z,20.63
2023-01-17T21:27:38.202Z,13.05
2023-01-17T21:30:40.254Z,12.93
2023-01-17T21:33:42.302Z,11.67
2023-01-17T21:36:44.357Z,14.90
2023-01-17T21:39:51.488Z,16.70
2023-01-17T21:42:53.521Z,12.40
2023-01-17T21:45:55.560Z,12.73
2023-01-17T21:48:57.860Z,15.50
2023-01-17T21:51:59.887Z,11.27
2023-01-17T21:55:20.625Z,10.80
2023-01-17T21:58:41.026Z,13.25
2023-01-17T22:01:43.040Z,8.57
2023-01-17T22:04:45.131Z,11.60
2023-01-17T22:08:05.618Z,11.23
2023-01-17T22:11:11.890Z,10.38
2023-01-17T22:14:13.861Z,10.63
2023-01-17T22:17:15.865Z,14.82
2023-01-17T22:20:20.138Z,10.93
2023-01-17T22:23:23.185Z,9.82
2023-01-17T22:26:26.453Z,7.82
2023-01-17T22:29:28.501Z,9.82
2023-01-17T22:32:30.474Z,11.15
2023-01-17T22:35:32.797Z,13.33
2023-01-17T22:38:35.091Z,8.70
2023-01-17T22:41:38.086Z,10.27
2023-01-17T22:44:40.186Z,16.37
2023-01-17T22:47:42.263Z,8.75
2023-01-17T22:50:44.253Z,10.85
2023-01-17T22:53:47.966Z,8.70
2023-01-17T22:56:50.212Z,9.43
2023-01-17T22:59:52.245Z,9.77
2023-01-17T23:02:54.384Z,9.15
2023-01-17T23:05:56.463Z,10.63
2023-01-17T23:08:59.665Z,13.63
2023-01-17T23:12:01.621Z,6.70
2023-01-17T23:15:22.481Z,9.63
2023-01-17T23:18:42.972Z,7.18
2023-01-17T23:22:03.350Z,11.63
2023-01-17T23:25:12.897Z,9.07
2023-01-17T23:28:20.816Z,12.65
2023-01-17T23:31:23.484Z,5.80
2023-01-17T23:34:25.464Z,4.78
2023-01-17T23:37:48.129Z,7.93
2023-01-17T23:41:09.031Z,7.53
2023-01-17T23:44:11.048Z,8.68
2023-01-17T23:47:13.034Z,7.70
2023-01-17T23:50:15.146Z,6.07
2023-01-17T23:53:22.542Z,9.55
2023-01-17T23:56:24.926Z,5.82
2023-01-17T23:59:26.929Z,10.52
